sensor_id;sensor_type;location;lat;lon;timestamp;P1;durP1;ratioP1;P2;durP2;ratioP2
42670;SDS011;28283;55.426;37.756;2022-12-07T00:04:40;4.55;;;2.22;;
42670;SDS011;28283;55.426;37.756;2022-12-07T00:09:41;5.18;;;2.90;;
42670;SDS011;28283;55.426;37.756;2022-12-07T00:14:42;7.68;;;2.35;;
42670;SDS011;28283;55.426;37.756;2022-12-07T00:19:42;3.28;;;1.90;;
42670;SDS011;28283;55.426;37.756;2022-12-07T00:24:43;3.38;;;2.22;;
42670;SDS011;28283;55.426;37.756;2022-12-07T00:29:43;3.60;;;2.42;;
42670;SDS011;28283;55.426;37.756;2022-12-07T00:34:44;5.18;;;3.13;;
42670;SDS011;28283;55.426;37.756;2022-12-07T00:39:45;4.45;;;2.72;;
42670;SDS011;28283;55.426;37.756;2022-12-07T00:44:46;2.05;;;1.55;;
42670;SDS011;28283;55.426;37.756;2022-12-07T00:49:47;3.22;;;2.22;;
42670;SDS011;28283;55.426;37.756;2022-12-07T00:54:48;2.85;;;2.20;;
42670;SDS011;28283;55.426;37.756;2022-12-07T00:59:48;4.05;;;2.55;;
42670;SDS011;28283;55.426;37.756;2022-12-07T01:04:49;4.18;;;2.15;;
42670;SDS011;28283;55.426;37.756;2022-12-07T01:09:49;4.25;;;2.55;;
42670;SDS011;28283;55.426;37.756;2022-12-07T01:14:50;5.28;;;2.45;;
42670;SDS011;28283;55.426;37.756;2022-12-07T01:19:51;3.17;;;2.70;;
42670;SDS011;28283;55.426;37.756;2022-12-07T01:24:51;4.53;;;2.65;;
42670;SDS011;28283;55.426;37.756;2022-12-07T01:29:52;6.20;;;3.53;;
42670;SDS011;28283;55.426;37.756;2022-12-07T01:34:53;4.68;;;3.33;;
42670;SDS011;28283;55.426;37.756;2022-12-07T01:39:53;3.85;;;2.83;;
42670;SDS011;28283;55.426;37.756;2022-12-07T01:50:31;3.97;;;2.55;;
42670;SDS011;28283;55.426;37.756;2022-12-07T01:55:34;4.72;;;2.83;;
42670;SDS011;28283;55.426;37.756;2022-12-07T02:00:37;2.85;;;1.38;;
42670;SDS011;28283;55.426;37.756;2022-12-07T02:05:38;4.00;;;2.63;;
42670;SDS011;28283;55.426;37.756;2022-12-07T02:10:41;4.95;;;2.63;;
42670;SDS011;28283;55.426;37.756;2022-12-07T02:16:00;7.78;;;2.65;;
42670;SDS011;28283;55.426;37.756;2022-12-07T02:32:25;2.63;;;2.10;;
42670;SDS011;28283;55.426;37.756;2022-12-07T02:43:09;4.72;;;2.70;;
42670;SDS011;28283;55.426;37.756;2022-12-07T02:48:16;5.30;;;2.95;;
42670;SDS011;28283;55.426;37.756;2022-12-07T02:53:28;5.13;;;2.88;;
42670;SDS011;28283;55.426;37.756;2022-12-07T03:04:02;4.13;;;2.30;;
42670;SDS011;28283;55.426;37.756;2022-12-07T03:14:34;3.80;;;2.17;;
42670;SDS011;28283;55.426;37.756;2022-12-07T03:19:41;6.25;;;2.50;;
42670;SDS011;28283;55.426;37.756;2022-12-07T03:24:55;5.63;;;2.97;;
42670;SDS011;28283;55.426;37.756;2022-12-07T03:30:00;6.50;;;3.47;;
42670;SDS011;28283;55.426;37.756;2022-12-07T03:35:14;3.83;;;2.47;;
42670;SDS011;28283;55.426;37.756;2022-12-07T03:40:22;3.13;;;2.22;;
42670;SDS011;28283;55.426;37.756;2022-12-07T03:45:37;4.22;;;2.08;;
42670;SDS011;28283;55.426;37.756;2022-12-07T03:50:54;5.25;;;3.08;;
42670;SDS011;28283;55.426;37.756;2022-12-07T03:56:16;10.88;;;2.90;;
42670;SDS011;28283;55.426;37.756;2022-12-07T04:01:17;5.32;;;2.42;;
42670;SDS011;28283;55.426;37.756;2022-12-07T04:06:18;6.35;;;3.60;;
42670;SDS011;28283;55.426;37.756;2022-12-07T04:11:19;8.98;;;2.97;;
42670;SDS011;28283;55.426;37.756;2022-12-07T04:16:20;4.00;;;2.00;;
42670;SDS011;28283;55.426;37.756;2022-12-07T04:21:20;5.18;;;2.53;;
42670;SDS011;28283;55.426;37.756;2022-12-07T04:26:21;5.20;;;3.70;;
42670;SDS011;28283;55.426;37.756;2022-12-07T04:31:22;7.00;;;3.35;;
42670;SDS011;28283;55.426;37.756;2022-12-07T04:36:22;5.38;;;3.42;;
42670;SDS011;28283;55.426;37.756;2022-12-07T04:41:23;4.75;;;3.35;;
42670;SDS011;28283;55.426;37.756;2022-12-07T04:46:28;6.95;;;3.25;;
42670;SDS011;28283;55.426;37.756;2022-12-07T04:51:30;6.63;;;3.53;;
42670;SDS011;28283;55.426;37.756;2022-12-07T04:56:31;3.40;;;2.15;;
42670;SDS011;28283;55.426;37.756;2022-12-07T05:01:32;9.02;;;3.00;;
42670;SDS011;28283;55.426;37.756;2022-12-07T05:06:33;5.95;;;2.95;;
42670;SDS011;28283;55.426;37.756;2022-12-07T05:11:34;10.88;;;4.93;;
42670;SDS011;28283;55.426;37.756;2022-12-07T05:16:38;12.10;;;3.78;;
42670;SDS011;28283;55.426;37.756;2022-12-07T05:21:39;12.25;;;5.28;;
42670;SDS011;28283;55.426;37.756;2022-12-07T05:26:40;12.23;;;5.50;;
42670;SDS011;28283;55.426;37.756;2022-12-07T05:31:42;12.60;;;6.00;;
42670;SDS011;28283;55.426;37.756;2022-12-07T05:36:42;10.60;;;5.90;;
42670;SDS011;28283;55.426;37.756;2022-12-07T05:41:43;12.10;;;5.85;;
42670;SDS011;28283;55.426;37.756;2022-12-07T05:47:02;9.27;;;6.22;;
42670;SDS011;28283;55.426;37.756;2022-12-07T05:52:03;13.15;;;6.22;;
42670;SDS011;28283;55.426;37.756;2022-12-07T05:57:04;10.05;;;4.03;;
42670;SDS011;28283;55.426;37.756;2022-12-07T06:02:06;11.75;;;5.80;;
42670;SDS011;28283;55.426;37.756;2022-12-07T06:07:13;12.15;;;6.07;;
42670;SDS011;28283;55.426;37.756;2022-12-07T06:12:15;7.00;;;2.95;;
42670;SDS011;28283;55.426;37.756;2022-12-07T06:17:33;11.45;;;6.15;;
42670;SDS011;28283;55.426;37.756;2022-12-07T06:22:34;9.40;;;5.75;;
42670;SDS011;28283;55.426;37.756;2022-12-07T06:27:35;8.40;;;5.00;;
42670;SDS011;28283;55.426;37.756;2022-12-07T06:32:36;14.82;;;6.28;;
42670;SDS011;28283;55.426;37.756;2022-12-07T06:37:37;9.60;;;4.85;;
42670;SDS011;28283;55.426;37.756;2022-12-07T06:42:37;14.43;;;5.72;;
42670;SDS011;28283;55.426;37.756;2022-12-07T06:47:38;5.18;;;3.95;;
42670;SDS011;28283;55.426;37.756;2022-12-07T06:52:39;12.25;;;6.15;;
42670;SDS011;28283;55.426;37.756;2022-12-07T06:57:39;8.10;;;4.72;;
42670;SDS011;28283;55.426;37.756;2022-12-07T07:02:40;11.73;;;5.30;;
42670;SDS011;28283;55.426;37.756;2022-12-07T07:07:41;11.25;;;4.63;;
42670;SDS011;28283;55.426;37.756;2022-12-07T07:12:42;8.30;;;4.97;;
42670;SDS011;28283;55.426;37.756;2022-12-07T07:17:43;13.80;;;5.50;;
42670;SDS011;28283;55.426;37.756;2022-12-07T07:22:44;8.57;;;4.45;;
42670;SDS011;28283;55.426;37.756;2022-12-07T07:27:45;6.10;;;3.28;;
42670;SDS011;28283;55.426;37.756;2022-12-07T07:32:45;11.52;;;5.85;;
42670;SDS011;28283;55.426;37.756;2022-12-07T07:37:46;7.95;;;4.78;;
42670;SDS011;28283;55.426;37.756;2022-12-07T07:42:50;10.48;;;5.63;;
42670;SDS011;28283;55.426;37.756;2022-12-07T07:47:52;8.90;;;5.00;;
42670;SDS011;28283;55.426;37.756;2022-12-07T07:52:54;7.25;;;5.20;;
42670;SDS011;28283;55.426;37.756;2022-12-07T08:00:43;9.85;;;6.00;;
42670;SDS011;28283;55.426;37.756;2022-12-07T08:05:44;10.10;;;5.57;;
42670;SDS011;28283;55.426;37.756;2022-12-07T08:10:44;10.70;;;5.72;;
42670;SDS011;28283;55.426;37.756;2022-12-07T08:15:46;16.10;;;5.57;;
42670;SDS011;28283;55.426;37.756;2022-12-07T08:20:47;5.95;;;2.85;;
42670;SDS011;28283;55.426;37.756;2022-12-07T08:25:48;9.27;;;6.50;;
42670;SDS011;28283;55.426;37.756;2022-12-07T08:30:49;9.88;;;5.38;;
42670;SDS011;28283;55.426;37.756;2022-12-07T08:35:50;8.85;;;5.20;;
42670;SDS011;28283;55.426;37.756;2022-12-07T08:40:54;9.98;;;5.68;;
42670;SDS011;28283;55.426;37.756;2022-12-07T08:51:14;9.15;;;4.95;;
42670;SDS011;28283;55.426;37.756;2022-12-07T08:56:22;6.60;;;4.03;;
42670;SDS011;28283;55.426;37.756;2022-12-07T09:01:36;7.70;;;4.90;;
42670;SDS011;28283;55.426;37.756;2022-12-07T09:06:37;8.38;;;4.35;;
42670;SDS011;28283;55.426;37.756;2022-12-07T09:11:38;12.20;;;5.65;;
42670;SDS011;28283;55.426;37.756;2022-12-07T09:16:39;8.80;;;4.88;;
42670;SDS011;28283;55.426;37.756;2022-12-07T09:21:40;14.55;;;4.55;;
42670;SDS011;28283;55.426;37.756;2022-12-07T09:26:40;9.50;;;5.32;;
42670;SDS011;28283;55.426;37.756;2022-12-07T09:31:41;10.60;;;5.53;;
42670;SDS011;28283;55.426;37.756;2022-12-07T09:36:41;7.80;;;4.70;;
42670;SDS011;28283;55.426;37.756;2022-12-07T09:41:43;7.93;;;4.78;;
42670;SDS011;28283;55.426;37.756;2022-12-07T09:46:45;8.95;;;5.03;;
42670;SDS011;28283;55.426;37.756;2022-12-07T09:51:46;9.05;;;4.72;;
42670;SDS011;28283;55.426;37.756;2022-12-07T09:56:48;6.88;;;4.88;;
42670;SDS011;28283;55.426;37.756;2022-12-07T10:01:49;8.40;;;5.38;;
42670;SDS011;28283;55.426;37.756;2022-12-07T10:06:50;7.60;;;4.07;;
42670;SDS011;28283;55.426;37.756;2022-12-07T10:12:04;10.15;;;6.00;;
42670;SDS011;28283;55.426;37.756;2022-12-07T10:27:31;12.67;;;6.33;;
42670;SDS011;28283;55.426;37.756;2022-12-07T10:32:33;15.52;;;5.53;;
42670;SDS011;28283;55.426;37.756;2022-12-07T10:37:39;10.68;;;6.43;;
42670;SDS011;28283;55.426;37.756;2022-12-07T10:42:41;10.52;;;5.90;;
42670;SDS011;28283;55.426;37.756;2022-12-07T10:58:57;9.60;;;5.93;;
42670;SDS011;28283;55.426;37.756;2022-12-07T11:14:32;11.63;;;7.43;;
42670;SDS011;28283;55.426;37.756;2022-12-07T11:30:18;8.90;;;5.65;;
42670;SDS011;28283;55.426;37.756;2022-12-07T11:41:09;9.85;;;4.38;;
42670;SDS011;28283;55.426;37.756;2022-12-07T11:46:14;13.95;;;7.03;;
42670;SDS011;28283;55.426;37.756;2022-12-07T11:51:16;11.65;;;6.60;;
42670;SDS011;28283;55.426;37.756;2022-12-07T11:56:21;8.13;;;5.55;;
42670;SDS011;28283;55.426;37.756;2022-12-07T12:06:31;16.55;;;7.07;;
42670;SDS011;28283;55.426;37.756;2022-12-07T12:22:28;13.07;;;5.65;;
42670;SDS011;28283;55.426;37.756;2022-12-07T12:32:39;13.10;;;6.05;;
42670;SDS011;28283;55.426;37.756;2022-12-07T12:37:42;13.75;;;7.22;;
42670;SDS011;28283;55.426;37.756;2022-12-07T12:42:45;12.55;;;7.32;;
42670;SDS011;28283;55.426;37.756;2022-12-07T12:47:54;11.02;;;5.75;;
42670;SDS011;28283;55.426;37.756;2022-12-07T13:03:28;12.90;;;6.78;;
42670;SDS011;28283;55.426;37.756;2022-12-07T13:08:31;11.93;;;6.82;;
42670;SDS011;28283;55.426;37.756;2022-12-07T13:13:32;11.25;;;5.90;;
42670;SDS011;28283;55.426;37.756;2022-12-07T13:18:35;12.18;;;6.07;;
42670;SDS011;28283;55.426;37.756;2022-12-07T13:28:50;13.85;;;7.00;;
42670;SDS011;28283;55.426;37.756;2022-12-07T13:34:28;11.63;;;5.80;;
42670;SDS011;28283;55.426;37.756;2022-12-07T13:39:33;12.00;;;6.65;;
42670;SDS011;28283;55.426;37.756;2022-12-07T13:44:39;7.55;;;4.35;;
42670;SDS011;28283;55.426;37.756;2022-12-07T13:49:51;14.10;;;7.80;;
42670;SDS011;28283;55.426;37.756;2022-12-07T14:00:28;11.50;;;5.53;;
42670;SDS011;28283;55.426;37.756;2022-12-07T14:05:33;13.70;;;6.22;;
42670;SDS011;28283;55.426;37.756;2022-12-07T14:10:36;10.65;;;6.20;;
42670;SDS011;28283;55.426;37.756;2022-12-07T14:15:39;14.00;;;8.05;;
42670;SDS011;28283;55.426;37.756;2022-12-07T14:20:40;13.82;;;7.03;;
42670;SDS011;28283;55.426;37.756;2022-12-07T14:25:48;12.88;;;5.63;;
42670;SDS011;28283;55.426;37.756;2022-12-07T14:30:50;13.30;;;5.88;;
42670;SDS011;28283;55.426;37.756;2022-12-07T14:35:51;14.25;;;6.90;;
42670;SDS011;28283;55.426;37.756;2022-12-07T14:40:55;11.07;;;4.88;;
42670;SDS011;28283;55.426;37.756;2022-12-07T14:46:20;12.63;;;6.82;;
42670;SDS011;28283;55.426;37.756;2022-12-07T14:51:20;12.82;;;6.30;;
42670;SDS011;28283;55.426;37.756;2022-12-07T14:56:21;9.82;;;5.68;;
42670;SDS011;28283;55.426;37.756;2022-12-07T15:01:22;9.85;;;4.57;;
42670;SDS011;28283;55.426;37.756;2022-12-07T15:06:23;8.65;;;3.58;;
42670;SDS011;28283;55.426;37.756;2022-12-07T15:11:29;14.05;;;6.18;;
42670;SDS011;28283;55.426;37.756;2022-12-07T15:16:30;10.88;;;5.47;;
42670;SDS011;28283;55.426;37.756;2022-12-07T15:21:31;13.88;;;7.32;;
42670;SDS011;28283;55.426;37.756;2022-12-07T15:26:31;16.25;;;7.25;;
42670;SDS011;28283;55.426;37.756;2022-12-07T15:31:33;14.55;;;7.55;;
42670;SDS011;28283;55.426;37.756;2022-12-07T15:36:34;14.10;;;8.48;;
42670;SDS011;28283;55.426;37.756;2022-12-07T15:41:35;10.05;;;7.00;;
42670;SDS011;28283;55.426;37.756;2022-12-07T15:46:37;13.23;;;6.03;;
42670;SDS011;28283;55.426;37.756;2022-12-07T15:51:40;15.40;;;7.10;;
42670;SDS011;28283;55.426;37.756;2022-12-07T15:56:42;11.65;;;5.80;;
42670;SDS011;28283;55.426;37.756;2022-12-07T16:01:43;12.65;;;6.15;;
42670;SDS011;28283;55.426;37.756;2022-12-07T16:06:44;12.10;;;6.80;;
42670;SDS011;28283;55.426;37.756;2022-12-07T16:11:45;13.90;;;7.53;;
42670;SDS011;28283;55.426;37.756;2022-12-07T16:16:46;10.48;;;5.55;;
42670;SDS011;28283;55.426;37.756;2022-12-07T16:21:47;13.13;;;6.50;;
42670;SDS011;28283;55.426;37.756;2022-12-07T16:26:48;14.23;;;7.85;;
42670;SDS011;28283;55.426;37.756;2022-12-07T16:31:49;12.18;;;6.38;;
42670;SDS011;28283;55.426;37.756;2022-12-07T16:36:51;9.77;;;5.93;;
42670;SDS011;28283;55.426;37.756;2022-12-07T16:41:52;9.73;;;6.38;;
42670;SDS011;28283;55.426;37.756;2022-12-07T16:46:53;7.50;;;4.18;;
42670;SDS011;28283;55.426;37.756;2022-12-07T16:51:53;12.60;;;7.32;;
42670;SDS011;28283;55.426;37.756;2022-12-07T16:56:54;12.57;;;6.72;;
42670;SDS011;28283;55.426;37.756;2022-12-07T17:01:55;14.13;;;7.07;;
42670;SDS011;28283;55.426;37.756;2022-12-07T17:06:56;13.98;;;6.78;;
42670;SDS011;28283;55.426;37.756;2022-12-07T17:11:56;15.30;;;6.60;;
42670;SDS011;28283;55.426;37.756;2022-12-07T17:16:57;12.25;;;6.93;;
42670;SDS011;28283;55.426;37.756;2022-12-07T17:21:58;10.55;;;6.65;;
42670;SDS011;28283;55.426;37.756;2022-12-07T17:26:58;8.68;;;5.30;;
42670;SDS011;28283;55.426;37.756;2022-12-07T17:31:59;13.95;;;6.03;;
42670;SDS011;28283;55.426;37.756;2022-12-07T17:36:59;10.60;;;7.05;;
42670;SDS011;28283;55.426;37.756;2022-12-07T17:42:00;13.70;;;6.40;;
42670;SDS011;28283;55.426;37.756;2022-12-07T17:47:19;7.63;;;4.70;;
42670;SDS011;28283;55.426;37.756;2022-12-07T17:52:21;7.78;;;3.83;;
42670;SDS011;28283;55.426;37.756;2022-12-07T17:57:40;5.70;;;4.03;;
42670;SDS011;28283;55.426;37.756;2022-12-07T18:02:41;20.08;;;6.18;;
42670;SDS011;28283;55.426;37.756;2022-12-07T18:07:42;8.68;;;4.72;;
42670;SDS011;28283;55.426;37.756;2022-12-07T18:12:43;9.18;;;4.57;;
42670;SDS011;28283;55.426;37.756;2022-12-07T18:17:43;12.00;;;5.95;;
42670;SDS011;28283;55.426;37.756;2022-12-07T18:22:44;8.93;;;5.68;;
42670;SDS011;28283;55.426;37.756;2022-12-07T18:27:45;12.23;;;5.57;;
42670;SDS011;28283;55.426;37.756;2022-12-07T18:32:45;7.70;;;5.00;;
42670;SDS011;28283;55.426;37.756;2022-12-07T18:37:46;10.88;;;4.32;;
42670;SDS011;28283;55.426;37.756;2022-12-07T18:42:47;8.02;;;5.32;;
42670;SDS011;28283;55.426;37.756;2022-12-07T18:47:47;7.38;;;4.38;;
42670;SDS011;28283;55.426;37.756;2022-12-07T18:52:48;8.10;;;5.00;;
42670;SDS011;28283;55.426;37.756;2022-12-07T18:57:49;6.13;;;3.85;;
42670;SDS011;28283;55.426;37.756;2022-12-07T19:02:50;14.77;;;6.32;;
42670;SDS011;28283;55.426;37.756;2022-12-07T19:07:54;10.82;;;4.97;;
42670;SDS011;28283;55.426;37.756;2022-12-07T19:12:59;12.10;;;6.03;;
42670;SDS011;28283;55.426;37.756;2022-12-07T19:18:01;7.50;;;4.63;;
42670;SDS011;28283;55.426;37.756;2022-12-07T19:23:02;13.82;;;5.43;;
42670;SDS011;28283;55.426;37.756;2022-12-07T19:28:03;10.10;;;5.95;;
42670;SDS011;28283;55.426;37.756;2022-12-07T19:33:04;9.02;;;5.57;;
42670;SDS011;28283;55.426;37.756;2022-12-07T19:38:04;10.82;;;6.05;;
42670;SDS011;28283;55.426;37.756;2022-12-07T19:43:05;8.85;;;5.18;;
42670;SDS011;28283;55.426;37.756;2022-12-07T19:48:06;9.55;;;4.72;;
42670;SDS011;28283;55.426;37.756;2022-12-07T19:53:06;10.32;;;4.95;;
42670;SDS011;28283;55.426;37.756;2022-12-07T19:58:07;11.50;;;5.35;;
42670;SDS011;28283;55.426;37.756;2022-12-07T20:03:08;6.30;;;4.20;;
42670;SDS011;28283;55.426;37.756;2022-12-07T20:08:08;9.00;;;4.72;;
42670;SDS011;28283;55.426;37.756;2022-12-07T20:13:09;12.30;;;5.20;;
42670;SDS011;28283;55.426;37.756;2022-12-07T20:18:30;8.35;;;4.53;;
42670;SDS011;28283;55.426;37.756;2022-12-07T20:23:30;10.60;;;5.10;;
42670;SDS011;28283;55.426;37.756;2022-12-07T20:28:31;8.52;;;5.18;;
42670;SDS011;28283;55.426;37.756;2022-12-07T20:33:32;7.47;;;4.25;;
42670;SDS011;28283;55.426;37.756;2022-12-07T20:38:33;12.05;;;5.35;;
42670;SDS011;28283;55.426;37.756;2022-12-07T20:43:33;8.82;;;5.07;;
42670;SDS011;28283;55.426;37.756;2022-12-07T20:48:34;10.10;;;5.20;;
42670;SDS011;28283;55.426;37.756;2022-12-07T20:53:34;9.23;;;5.70;;
42670;SDS011;28283;55.426;37.756;2022-12-07T20:58:35;7.57;;;4.93;;
42670;SDS011;28283;55.426;37.756;2022-12-07T21:03:36;10.57;;;5.00;;
42670;SDS011;28283;55.426;37.756;2022-12-07T21:08:37;13.90;;;5.80;;
42670;SDS011;28283;55.426;37.756;2022-12-07T21:13:37;12.80;;;4.95;;
42670;SDS011;28283;55.426;37.756;2022-12-07T21:18:38;10.82;;;5.43;;
42670;SDS011;28283;55.426;37.756;2022-12-07T21:23:39;9.05;;;5.30;;
42670;SDS011;28283;55.426;37.756;2022-12-07T21:28:40;6.78;;;4.35;;
42670;SDS011;28283;55.426;37.756;2022-12-07T21:33:41;9.75;;;4.82;;
42670;SDS011;28283;55.426;37.756;2022-12-07T21:38:46;7.75;;;4.22;;
42670;SDS011;28283;55.426;37.756;2022-12-07T21:48:56;11.57;;;5.82;;
42670;SDS011;28283;55.426;37.756;2022-12-07T21:54:01;9.23;;;5.28;;
42670;SDS011;28283;55.426;37.756;2022-12-07T21:59:04;6.85;;;4.30;;
42670;SDS011;28283;55.426;37.756;2022-12-07T22:04:12;7.60;;;4.40;;
42670;SDS011;28283;55.426;37.756;2022-12-07T22:09:16;13.70;;;5.78;;
42670;SDS011;28283;55.426;37.756;2022-12-07T22:14:23;9.00;;;5.72;;
42670;SDS011;28283;55.426;37.756;2022-12-07T22:19:43;8.07;;;4.85;;
42670;SDS011;28283;55.426;37.756;2022-12-07T22:24:47;9.80;;;3.95;;
42670;SDS011;28283;55.426;37.756;2022-12-07T22:29:48;12.00;;;5.53;;
42670;SDS011;28283;55.426;37.756;2022-12-07T22:34:48;6.22;;;3.67;;
42670;SDS011;28283;55.426;37.756;2022-12-07T22:39:49;4.25;;;2.63;;
42670;SDS011;28283;55.426;37.756;2022-12-07T22:44:50;9.25;;;5.45;;
42670;SDS011;28283;55.426;37.756;2022-12-07T22:49:50;9.95;;;5.80;;
42670;SDS011;28283;55.426;37.756;2022-12-07T22:54:51;9.93;;;5.82;;
42670;SDS011;28283;55.426;37.756;2022-12-07T22:59:52;10.10;;;5.18;;
42670;SDS011;28283;55.426;37.756;2022-12-07T23:04:52;8.23;;;5.20;;
42670;SDS011;28283;55.426;37.756;2022-12-07T23:09:53;9.90;;;5.43;;
42670;SDS011;28283;55.426;37.756;2022-12-07T23:14:54;10.10;;;5.25;;
42670;SDS011;28283;55.426;37.756;2022-12-07T23:19:54;10.48;;;4.78;;
42670;SDS011;28283;55.426;37.756;2022-12-07T23:24:55;8.57;;;4.78;;
42670;SDS011;28283;55.426;37.756;2022-12-07T23:29:56;15.43;;;6.03;;
42670;SDS011;28283;55.426;37.756;2022-12-07T23:34:56;7.65;;;5.03;;
42670;SDS011;28283;55.426;37.756;2022-12-07T23:39:57;8.93;;;4.28;;
42670;SDS011;28283;55.426;37.756;2022-12-07T23:44:57;2.97;;;2.55;;
42670;SDS011;28283;55.426;37.756;2022-12-07T23:49:58;12.55;;;5.50;;
42670;SDS011;28283;55.426;37.756;2022-12-07T23:54:59;6.35;;;4.00;;
42670;SDS011;28283;55.426;37.756;2022-12-07T23:59:59;7.88;;;4.88;;
